createdAt,value
2018-05-13T00:00:05.817Z,16.46
2018-05-13T00:01:05.809Z,16.56
2018-05-13T00:02:05.804Z,16.51
2018-05-13T00:03:05.799Z,16.53
2018-05-13T00:04:05.795Z,16.42
2018-05-13T00:05:05.789Z,16.42
2018-05-13T00:06:05.787Z,16.47
2018-05-13T00:07:05.781Z,16.38
2018-05-13T00:08:05.775Z,16.41
2018-05-13T00:09:05.770Z,16.33
2018-05-13T00:10:05.765Z,16.38
2018-05-13T00:11:05.761Z,16.36
2018-05-13T00:12:05.756Z,16.35
2018-05-13T00:13:05.752Z,16.26
2018-05-13T00:14:05.748Z,16.26
2018-05-13T00:15:05.741Z,16.21
2018-05-13T00:16:05.737Z,16.31
2018-05-13T00:17:05.731Z,16.23
2018-05-13T00:18:05.727Z,16.13
2018-05-13T00:19:05.722Z,16.10
2018-05-13T00:20:05.720Z,16.09
2018-05-13T00:21:05.715Z,16.10
2018-05-13T00:22:05.706Z,16.12
2018-05-13T00:23:05.703Z,16.21
2018-05-13T00:24:05.697Z,16.15
2018-05-13T00:25:05.691Z,16.13
2018-05-13T00:26:05.686Z,16.09
2018-05-13T00:27:05.682Z,16.24
2018-05-13T00:28:05.681Z,16.21
2018-05-13T00:29:05.677Z,16.23
2018-05-13T00:30:05.666Z,16.36
2018-05-13T00:31:05.662Z,16.39
2018-05-13T00:32:05.662Z,16.38
2018-05-13T00:33:05.651Z,16.43
2018-05-13T00:34:05.646Z,16.32
2018-05-13T00:35:05.641Z,16.41
2018-05-13T00:36:05.636Z,16.41
2018-05-13T00:37:05.632Z,16.43
2018-05-13T00:38:05.626Z,16.39
2018-05-13T00:39:05.621Z,16.31
2018-05-13T00:40:05.616Z,16.36
2018-05-13T00:41:05.613Z,16.28
2018-05-13T00:42:05.609Z,16.23
2018-05-13T00:43:05.601Z,16.26
2018-05-13T00:44:05.596Z,16.26
2018-05-13T00:45:05.591Z,16.23
2018-05-13T00:46:05.585Z,16.16
2018-05-13T00:47:05.581Z,16.29
2018-05-13T00:48:05.579Z,16.26
2018-05-13T00:49:05.570Z,16.20
2018-05-13T00:50:05.566Z,16.09
2018-05-13T00:51:05.561Z,16.15
2018-05-13T00:52:05.556Z,16.08
2018-05-13T00:53:05.554Z,16.13
2018-05-13T00:54:05.546Z,16.15
2018-05-13T00:55:05.540Z,16.05
2018-05-13T00:56:05.539Z,16.13
2018-05-13T00:57:05.529Z,16.05
2018-05-13T00:58:05.525Z,16.09
2018-05-13T00:59:05.520Z,16.08
2018-05-13T01:00:05.515Z,16.05
2018-05-13T01:01:05.509Z,16.04
2018-05-13T01:02:05.504Z,16.26
2018-05-13T01:03:05.501Z,16.23
2018-05-13T01:04:05.495Z,16.28
2018-05-13T01:05:05.489Z,16.24
2018-05-13T01:06:05.488Z,16.26
2018-05-13T01:07:05.479Z,16.33
2018-05-13T01:08:05.474Z,16.29
2018-05-13T01:09:05.469Z,16.39
2018-05-13T01:10:05.467Z,16.43
2018-05-13T01:11:05.460Z,16.35
2018-05-13T01:12:05.454Z,16.36
2018-05-13T01:13:05.448Z,16.42
2018-05-13T01:14:05.443Z,16.41
2018-05-13T01:15:05.438Z,16.39
2018-05-13T01:16:05.434Z,16.53
2018-05-13T01:17:05.427Z,16.36
2018-05-13T01:18:05.428Z,16.36
2018-05-13T01:19:05.418Z,16.46
2018-05-13T01:20:05.413Z,16.38
2018-05-13T01:21:05.407Z,16.39
2018-05-13T01:22:05.402Z,16.47
2018-05-13T01:23:05.397Z,16.43
2018-05-13T01:24:05.395Z,16.47
2018-05-13T01:25:05.386Z,16.35
2018-05-13T01:26:05.382Z,16.38
2018-05-13T01:27:05.377Z,16.23
2018-05-13T01:28:05.372Z,16.31
2018-05-13T01:29:05.367Z,16.38
2018-05-13T01:30:05.360Z,16.35
2018-05-13T01:31:05.356Z,16.36
2018-05-13T01:32:05.353Z,16.29
2018-05-13T01:33:05.347Z,16.21
2018-05-13T01:34:05.342Z,16.24
2018-05-13T01:35:05.335Z,16.26
2018-05-13T01:36:05.330Z,16.16
2018-05-13T01:37:05.325Z,16.31
2018-05-13T01:38:05.320Z,16.26
2018-05-13T01:39:05.315Z,16.09
2018-05-13T01:40:05.310Z,16.10
2018-05-13T01:41:05.304Z,16.10
2018-05-13T01:42:05.298Z,16.12
2018-05-13T01:43:05.362Z,16.28
2018-05-13T01:44:05.291Z,16.20
2018-05-13T01:45:05.282Z,16.26
2018-05-13T01:46:05.285Z,16.21
2018-05-13T01:47:05.275Z,16.20
2018-05-13T01:48:05.266Z,16.41
2018-05-13T01:49:05.260Z,16.39
2018-05-13T01:50:05.255Z,16.38
2018-05-13T01:51:05.250Z,16.42
2018-05-13T01:52:05.244Z,16.38
2018-05-13T01:53:05.241Z,16.35
2018-05-13T01:54:05.236Z,16.31
2018-05-13T01:55:05.228Z,16.39
2018-05-13T01:56:05.222Z,16.38
2018-05-13T01:57:05.217Z,16.49
2018-05-13T01:58:05.211Z,16.42
2018-05-13T01:59:05.206Z,16.41
2018-05-13T02:00:05.201Z,16.49
2018-05-13T02:01:05.195Z,16.43
2018-05-13T02:02:05.189Z,16.42
2018-05-13T02:03:05.184Z,16.39
2018-05-13T02:04:05.179Z,16.47
2018-05-13T02:05:05.173Z,16.54
2018-05-13T02:06:05.170Z,16.50
2018-05-13T02:07:05.162Z,16.51
2018-05-13T02:08:05.156Z,16.57
2018-05-13T02:09:05.150Z,16.50
2018-05-13T02:10:05.145Z,16.51
2018-05-13T02:11:05.140Z,16.61
2018-05-13T02:12:05.135Z,16.56
2018-05-13T02:13:05.128Z,16.50
2018-05-13T02:14:05.124Z,16.54
2018-05-13T02:15:05.118Z,16.60
2018-05-13T02:16:05.114Z,16.64
2018-05-13T02:17:05.106Z,16.60
2018-05-13T02:18:05.101Z,16.60
2018-05-13T02:19:05.096Z,16.64
2018-05-13T02:20:05.091Z,16.65
2018-05-13T02:21:05.083Z,16.72
2018-05-13T02:22:05.079Z,16.65
2018-05-13T02:23:05.074Z,16.68
2018-05-13T02:24:05.068Z,16.64
2018-05-13T02:25:05.064Z,16.61
2018-05-13T02:26:05.062Z,16.61
2018-05-13T02:27:05.053Z,16.64
2018-05-13T02:28:05.048Z,16.76
2018-05-13T02:29:05.042Z,16.66
2018-05-13T02:30:05.044Z,16.65
2018-05-13T02:31:05.037Z,16.64
2018-05-13T02:32:05.028Z,16.61
2018-05-13T02:33:05.022Z,16.57
2018-05-13T02:34:05.018Z,16.49
2018-05-13T02:35:05.012Z,16.49
2018-05-13T02:36:05.007Z,16.43
2018-05-13T02:37:05.001Z,16.05
2018-05-13T02:38:04.997Z,15.82
2018-05-13T02:39:04.992Z,15.61
2018-05-13T02:40:05.001Z,15.54
2018-05-13T02:41:04.979Z,15.52
2018-05-13T02:42:04.978Z,15.35
2018-05-13T02:43:04.972Z,15.35
2018-05-13T02:44:04.963Z,15.27
2018-05-13T02:45:04.956Z,15.19
2018-05-13T02:46:04.954Z,15.18
2018-05-13T02:47:04.944Z,15.07
2018-05-13T02:48:04.938Z,15.11
2018-05-13T02:49:04.937Z,14.99
2018-05-13T02:50:04.925Z,15.04
2018-05-13T02:51:04.920Z,15.02
2018-05-13T02:52:04.913Z,15.09
2018-05-13T02:53:04.908Z,14.96
2018-05-13T02:54:04.900Z,14.96
2018-05-13T02:55:04.894Z,14.96
2018-05-13T02:56:04.889Z,14.86
2018-05-13T02:57:04.881Z,14.89
2018-05-13T02:58:04.876Z,14.86
2018-05-13T02:59:04.870Z,14.81
2018-05-13T03:00:04.864Z,14.78
2018-05-13T03:01:04.858Z,14.79
2018-05-13T03:02:04.851Z,14.82
2018-05-13T03:03:04.849Z,14.88
2018-05-13T03:04:04.838Z,14.97
2018-05-13T03:05:04.831Z,14.86
2018-05-13T03:06:04.825Z,14.91
2018-05-13T03:07:04.819Z,14.88
2018-05-13T03:08:04.813Z,14.79
2018-05-13T03:09:04.806Z,14.89
2018-05-13T03:10:04.799Z,14.99
2018-05-13T03:11:04.793Z,14.92
2018-05-13T03:12:04.786Z,14.92
2018-05-13T03:13:04.780Z,14.97
2018-05-13T03:14:04.773Z,14.96
2018-05-13T03:15:04.768Z,15.03
2018-05-13T03:16:04.761Z,15.03
2018-05-13T03:17:04.753Z,15.02
2018-05-13T03:18:04.747Z,15.07
2018-05-13T03:19:04.752Z,15.00
2018-05-13T03:20:04.735Z,15.04
2018-05-13T03:21:04.728Z,14.99
2018-05-13T03:22:04.722Z,14.94
2018-05-13T03:23:04.716Z,15.00
2018-05-13T03:24:04.709Z,15.06
2018-05-13T03:25:04.702Z,15.10
2018-05-13T03:26:04.701Z,15.00
2018-05-13T03:27:04.694Z,15.04
2018-05-13T03:28:04.684Z,15.02
2018-05-13T03:29:04.683Z,14.97
2018-05-13T03:30:04.672Z,14.97
2018-05-13T03:31:04.665Z,14.99
2018-05-13T03:32:04.659Z,14.96
2018-05-13T03:33:04.652Z,15.04
2018-05-13T03:34:04.646Z,14.96
2018-05-13T03:35:04.640Z,14.97
2018-05-13T03:36:04.636Z,15.06
2018-05-13T03:37:04.627Z,14.94
2018-05-13T03:38:04.621Z,15.00
2018-05-13T03:39:04.614Z,15.00
2018-05-13T03:40:04.609Z,15.04
2018-05-13T03:41:04.601Z,14.91
2018-05-13T03:42:04.595Z,15.00
2018-05-13T03:43:04.590Z,14.94
2018-05-13T03:44:04.588Z,14.81
2018-05-13T03:45:04.576Z,14.92
2018-05-13T03:46:04.570Z,14.92
2018-05-13T03:47:04.564Z,15.00
2018-05-13T03:48:04.558Z,14.94
2018-05-13T03:49:04.550Z,15.00
2018-05-13T03:50:04.544Z,14.92
2018-05-13T03:51:04.539Z,14.96
2018-05-13T03:52:04.532Z,15.00
2018-05-13T03:53:04.525Z,14.96
2018-05-13T03:54:04.520Z,15.02
2018-05-13T03:55:04.517Z,14.99
2018-05-13T03:56:04.507Z,14.94
2018-05-13T03:57:04.511Z,14.96
2018-05-13T03:58:04.493Z,14.94
2018-05-13T03:59:04.488Z,14.97
2018-05-13T04:00:04.481Z,14.92
2018-05-13T04:01:04.474Z,14.94
2018-05-13T04:02:04.473Z,14.89
2018-05-13T04:03:04.493Z,14.86
2018-05-13T04:04:04.456Z,14.94
2018-05-13T04:05:04.449Z,14.92
2018-05-13T04:06:04.443Z,14.96
2018-05-13T04:07:04.437Z,14.96
2018-05-13T04:08:04.431Z,14.94
2018-05-13T04:09:04.424Z,14.99
2018-05-13T04:10:04.419Z,14.99
2018-05-13T04:11:04.412Z,14.92
2018-05-13T04:12:04.405Z,14.91
2018-05-13T04:13:04.400Z,14.91
2018-05-13T04:14:04.392Z,14.92
2018-05-13T04:15:04.387Z,14.91
2018-05-13T04:16:04.382Z,14.91
2018-05-13T04:17:04.374Z,14.88
2018-05-13T04:18:04.368Z,14.78
2018-05-13T04:19:04.362Z,14.86
2018-05-13T04:20:04.356Z,14.78
2018-05-13T04:21:04.349Z,14.82
2018-05-13T04:22:04.348Z,14.72
2018-05-13T04:23:04.337Z,14.65
2018-05-13T04:24:04.331Z,14.69
2018-05-13T04:25:04.327Z,14.69
2018-05-13T04:26:04.317Z,14.72
2018-05-13T04:27:04.313Z,14.70
2018-05-13T04:28:04.307Z,14.68
2018-05-13T04:29:04.301Z,14.63
2018-05-13T04:30:04.293Z,14.63
2018-05-13T04:31:04.288Z,14.63
2018-05-13T04:32:04.281Z,14.70
2018-05-13T04:33:04.274Z,14.81
2018-05-13T04:34:04.268Z,14.79
2018-05-13T04:35:04.262Z,14.69
2018-05-13T04:36:04.255Z,14.68
2018-05-13T04:37:04.251Z,14.66
2018-05-13T04:38:04.242Z,14.60
2018-05-13T04:39:04.236Z,14.60
2018-05-13T04:40:04.229Z,14.63
2018-05-13T04:41:04.222Z,14.47
2018-05-13T04:42:04.219Z,14.45
2018-05-13T04:43:04.209Z,14.44
2018-05-13T04:44:04.204Z,14.44
2018-05-13T04:45:04.195Z,14.35
2018-05-13T04:46:04.188Z,14.37
2018-05-13T04:47:04.182Z,14.47
2018-05-13T04:48:04.181Z,14.44
2018-05-13T04:49:04.168Z,14.47
2018-05-13T04:50:04.162Z,14.37
2018-05-13T04:51:04.155Z,14.47
2018-05-13T04:52:04.149Z,14.43
2018-05-13T04:53:04.141Z,14.35
2018-05-13T04:54:04.134Z,14.37
2018-05-13T04:55:04.128Z,14.35
2018-05-13T04:56:04.121Z,14.26
2018-05-13T04:57:04.114Z,14.23
2018-05-13T04:58:04.107Z,14.22
2018-05-13T04:59:04.100Z,14.28
2018-05-13T05:00:04.094Z,14.17
2018-05-13T05:01:04.086Z,14.30
2018-05-13T05:02:04.079Z,14.29
2018-05-13T05:03:04.072Z,14.29
2018-05-13T05:04:04.066Z,14.12
2018-05-13T05:05:04.058Z,14.07
2018-05-13T05:06:04.051Z,14.11
2018-05-13T05:07:04.044Z,14.08
2018-05-13T05:08:04.037Z,14.05
2018-05-13T05:09:04.069Z,14.20
2018-05-13T05:10:04.024Z,14.14
2018-05-13T05:11:04.015Z,14.05
2018-05-13T05:12:04.008Z,13.95
2018-05-13T05:13:04.000Z,14.00
2018-05-13T05:14:03.992Z,14.03
2018-05-13T05:15:03.987Z,13.90
2018-05-13T05:16:03.978Z,13.93
2018-05-13T05:17:03.971Z,13.95
2018-05-13T05:18:03.963Z,13.96
2018-05-13T05:19:03.956Z,13.93
2018-05-13T05:20:03.949Z,13.92
2018-05-13T05:21:03.941Z,13.92
2018-05-13T05:22:03.933Z,13.92
2018-05-13T05:23:03.926Z,13.93
2018-05-13T05:24:03.918Z,13.95
2018-05-13T05:25:03.910Z,13.93
2018-05-13T05:26:03.902Z,13.78
2018-05-13T05:27:03.895Z,13.81
2018-05-13T05:28:03.887Z,13.77
2018-05-13T05:29:03.879Z,13.75
2018-05-13T05:30:03.872Z,13.75
2018-05-13T05:31:03.864Z,13.74
2018-05-13T05:32:03.857Z,13.67
2018-05-13T05:33:03.848Z,13.72
2018-05-13T05:34:03.841Z,13.63
2018-05-13T05:35:03.833Z,13.65
2018-05-13T05:36:03.827Z,13.65
2018-05-13T05:37:03.817Z,13.68
2018-05-13T05:38:03.810Z,13.67
2018-05-13T05:39:03.803Z,13.68
2018-05-13T05:40:03.795Z,13.62
2018-05-13T05:41:03.787Z,13.65
2018-05-13T05:42:03.780Z,13.67
2018-05-13T05:43:03.772Z,13.67
2018-05-13T05:44:03.765Z,13.62
2018-05-13T05:45:03.756Z,13.68
2018-05-13T05:46:03.750Z,13.62
2018-05-13T05:47:03.742Z,13.52
2018-05-13T05:48:03.734Z,13.47
2018-05-13T05:49:03.726Z,13.44
2018-05-13T05:50:03.726Z,13.42
2018-05-13T05:51:03.712Z,13.46
2018-05-13T05:52:03.705Z,13.41
2018-05-13T05:53:03.696Z,13.52
2018-05-13T05:54:03.691Z,13.44
2018-05-13T05:55:03.682Z,13.44
2018-05-13T05:56:03.676Z,13.53
2018-05-13T05:57:03.666Z,13.62
2018-05-13T05:58:03.659Z,13.50
2018-05-13T05:59:03.652Z,13.53
2018-05-13T06:00:03.648Z,13.50
2018-05-13T06:01:03.637Z,13.46
2018-05-13T06:02:03.629Z,13.50
2018-05-13T06:03:03.622Z,13.62
2018-05-13T06:04:03.615Z,13.59
2018-05-13T06:05:03.607Z,13.60
2018-05-13T06:06:03.600Z,13.57
2018-05-13T06:07:03.593Z,13.60
2018-05-13T06:08:03.586Z,13.53
2018-05-13T06:09:03.578Z,13.50
2018-05-13T06:10:03.573Z,13.54
2018-05-13T06:11:03.564Z,13.70
2018-05-13T06:12:03.558Z,13.63
2018-05-13T06:13:03.549Z,13.63
2018-05-13T06:14:03.542Z,13.68
2018-05-13T06:15:03.535Z,13.68
2018-05-13T06:16:03.527Z,13.65
2018-05-13T06:17:03.526Z,13.54
2018-05-13T06:18:03.512Z,13.67
2018-05-13T06:19:03.506Z,13.65
2018-05-13T06:20:03.498Z,13.62
2018-05-13T06:21:03.490Z,13.60
2018-05-13T06:22:03.484Z,13.59
2018-05-13T06:23:03.476Z,13.62
2018-05-13T06:24:03.469Z,13.63
2018-05-13T06:25:03.469Z,13.62
2018-05-13T06:26:03.461Z,13.54
2018-05-13T06:27:03.446Z,13.67
2018-05-13T06:28:03.438Z,13.68
2018-05-13T06:29:03.431Z,13.67
2018-05-13T06:30:03.424Z,13.65
2018-05-13T06:31:03.419Z,13.67
2018-05-13T06:32:03.410Z,13.68
2018-05-13T06:33:03.402Z,13.63
2018-05-13T06:34:03.395Z,13.68
2018-05-13T06:35:03.388Z,13.60
2018-05-13T06:36:03.381Z,13.68
2018-05-13T06:37:03.373Z,13.67
2018-05-13T06:38:03.366Z,13.63
2018-05-13T06:39:03.359Z,13.59
2018-05-13T06:40:03.352Z,13.71
2018-05-13T06:41:03.345Z,13.63
2018-05-13T06:42:03.337Z,13.62
2018-05-13T06:43:03.330Z,13.67
2018-05-13T06:44:03.323Z,13.67
2018-05-13T06:45:03.314Z,13.63
2018-05-13T06:46:03.307Z,13.62
2018-05-13T06:47:03.300Z,13.60
2018-05-13T06:48:03.292Z,13.70
2018-05-13T06:49:03.284Z,13.60
2018-05-13T06:50:03.279Z,13.60
2018-05-13T06:51:03.387Z,13.65
2018-05-13T06:52:03.263Z,13.67
2018-05-13T06:53:03.258Z,13.72
2018-05-13T06:54:03.250Z,13.63
2018-05-13T06:55:03.241Z,13.62
2018-05-13T06:56:03.234Z,13.62
2018-05-13T06:57:03.226Z,13.62
2018-05-13T06:58:03.218Z,13.67
2018-05-13T06:59:03.212Z,13.68
2018-05-13T07:00:03.205Z,13.65
2018-05-13T07:01:03.200Z,13.65
2018-05-13T07:02:03.192Z,13.63
2018-05-13T07:03:03.184Z,13.62
2018-05-13T07:04:03.174Z,13.62
2018-05-13T07:05:03.226Z,13.50
2018-05-13T07:06:03.159Z,13.50
2018-05-13T07:07:03.151Z,13.59
2018-05-13T07:08:03.144Z,13.68
2018-05-13T07:09:03.136Z,13.70
2018-05-13T07:10:03.129Z,13.62
2018-05-13T07:11:03.121Z,13.56
2018-05-13T07:12:03.116Z,13.52
2018-05-13T07:13:03.107Z,13.50
2018-05-13T07:14:03.099Z,13.46
2018-05-13T07:15:03.095Z,13.47
2018-05-13T07:16:03.085Z,13.42
2018-05-13T07:17:03.077Z,13.44
2018-05-13T07:18:03.072Z,13.41
2018-05-13T07:19:03.063Z,13.49
2018-05-13T07:20:03.057Z,13.54
2018-05-13T07:21:03.047Z,13.49
2018-05-13T07:22:03.043Z,13.59
2018-05-13T07:23:03.033Z,13.65
2018-05-13T07:24:03.026Z,13.62
2018-05-13T07:25:03.019Z,13.59
2018-05-13T07:26:03.012Z,13.63
2018-05-13T07:27:03.008Z,13.60
2018-05-13T07:28:03.001Z,13.67
2018-05-13T07:29:02.992Z,13.60
2018-05-13T07:30:02.982Z,13.60
2018-05-13T07:31:02.976Z,13.59
2018-05-13T07:32:02.974Z,13.53
2018-05-13T07:33:02.961Z,13.47
2018-05-13T07:34:02.954Z,13.52
2018-05-13T07:35:02.946Z,13.59
2018-05-13T07:36:02.940Z,13.50
2018-05-13T07:37:02.932Z,13.50
2018-05-13T07:38:02.925Z,13.41
2018-05-13T07:39:02.918Z,13.49
2018-05-13T07:40:02.911Z,13.50
2018-05-13T07:41:02.903Z,13.53
2018-05-13T07:42:02.896Z,13.60
2018-05-13T07:43:02.890Z,13.50
2018-05-13T07:44:02.884Z,13.53
2018-05-13T07:45:02.877Z,13.47
2018-05-13T07:46:02.868Z,13.44
2018-05-13T07:47:02.861Z,13.46
2018-05-13T07:48:02.855Z,13.50
2018-05-13T07:49:02.847Z,13.38
2018-05-13T07:50:02.863Z,13.35
2018-05-13T07:51:02.874Z,13.31
2018-05-13T07:52:02.826Z,13.25
2018-05-13T07:53:02.818Z,13.33
2018-05-13T07:54:02.810Z,13.30
2018-05-13T07:55:02.803Z,13.31
2018-05-13T07:56:02.796Z,13.30
2018-05-13T07:57:02.788Z,13.30
2018-05-13T07:58:02.781Z,13.39
2018-05-13T07:59:02.774Z,13.33
2018-05-13T08:00:02.771Z,13.28
2018-05-13T08:01:02.758Z,13.37
2018-05-13T08:02:02.752Z,13.37
2018-05-13T08:03:02.745Z,13.27
2018-05-13T08:04:02.738Z,13.31
2018-05-13T08:05:02.732Z,13.20
2018-05-13T08:06:02.724Z,13.23
2018-05-13T08:07:02.719Z,13.20
2018-05-13T08:08:02.709Z,13.23
2018-05-13T08:09:02.701Z,13.27
2018-05-13T08:10:02.693Z,13.28
2018-05-13T08:11:02.691Z,13.25
2018-05-13T08:12:02.678Z,13.27
2018-05-13T08:13:02.673Z,13.27
2018-05-13T08:14:02.747Z,13.28
2018-05-13T08:15:02.657Z,13.30
2018-05-13T08:16:02.649Z,13.39
2018-05-13T08:17:02.641Z,13.37
2018-05-13T08:18:02.635Z,13.35
2018-05-13T08:19:02.628Z,13.38
2018-05-13T08:20:02.621Z,13.38
2018-05-13T08:21:02.612Z,13.33
2018-05-13T08:22:02.608Z,13.30
2018-05-13T08:23:02.599Z,13.27
2018-05-13T08:24:02.594Z,13.22
2018-05-13T08:25:02.584Z,13.22
2018-05-13T08:26:02.577Z,13.30
2018-05-13T08:27:02.570Z,13.30
2018-05-13T08:28:02.565Z,13.22
2018-05-13T08:29:02.555Z,13.23
2018-05-13T08:30:02.548Z,13.35
2018-05-13T08:31:02.542Z,13.27
2018-05-13T08:32:02.535Z,13.23
2018-05-13T08:33:02.528Z,13.25
2018-05-13T08:34:02.520Z,13.28
2018-05-13T08:35:02.516Z,13.30
2018-05-13T08:36:02.507Z,13.28
2018-05-13T08:37:02.499Z,13.35
2018-05-13T08:38:02.496Z,13.30
2018-05-13T08:39:02.485Z,13.20
2018-05-13T08:40:02.480Z,13.27
2018-05-13T08:41:02.470Z,13.30
2018-05-13T08:42:02.464Z,13.27
2018-05-13T08:43:02.457Z,13.13
2018-05-13T08:44:02.450Z,13.28
2018-05-13T08:45:02.441Z,13.25
2018-05-13T08:46:02.434Z,13.22
2018-05-13T08:47:02.431Z,13.23
2018-05-13T08:48:02.420Z,13.23
2018-05-13T08:49:02.412Z,13.25
2018-05-13T08:50:02.405Z,13.30
2018-05-13T08:51:02.398Z,13.33
2018-05-13T08:52:02.390Z,13.25
2018-05-13T08:53:02.383Z,13.25
2018-05-13T08:54:02.427Z,13.31
2018-05-13T08:55:02.371Z,13.28
2018-05-13T08:56:02.361Z,13.28
2018-05-13T08:57:02.353Z,13.23
2018-05-13T08:58:02.344Z,13.23
2018-05-13T08:59:02.337Z,13.15
2018-05-13T09:00:02.331Z,13.22
2018-05-13T09:01:02.328Z,13.23
2018-05-13T09:02:02.315Z,13.22
2018-05-13T09:03:02.314Z,13.25
2018-05-13T09:04:02.303Z,13.31
2018-05-13T09:05:02.291Z,13.27
2018-05-13T09:06:02.284Z,13.30
2018-05-13T09:07:02.276Z,13.33
2018-05-13T09:08:02.269Z,13.41
2018-05-13T09:09:02.260Z,13.49
2018-05-13T09:10:02.253Z,13.38
2018-05-13T09:11:02.246Z,13.37
2018-05-13T09:12:02.243Z,13.39
2018-05-13T09:13:02.234Z,13.50
2018-05-13T09:14:02.228Z,13.52
2018-05-13T09:15:02.216Z,13.49
2018-05-13T09:16:02.212Z,13.53
2018-05-13T09:17:02.202Z,13.54
2018-05-13T09:18:02.197Z,13.49
2018-05-13T09:19:02.186Z,13.41
2018-05-13T09:20:02.179Z,13.41
2018-05-13T09:21:02.171Z,13.50
2018-05-13T09:22:02.163Z,13.50
2018-05-13T09:23:02.156Z,13.57
2018-05-13T09:24:02.149Z,13.53
2018-05-13T09:25:02.141Z,13.49
2018-05-13T09:26:02.133Z,13.41
2018-05-13T09:27:02.126Z,13.42
2018-05-13T09:28:02.119Z,13.39
2018-05-13T09:29:02.114Z,13.39
2018-05-13T09:30:02.104Z,13.50
2018-05-13T09:31:02.096Z,13.53
2018-05-13T09:32:02.091Z,13.53
2018-05-13T09:33:02.143Z,13.46
2018-05-13T09:34:02.074Z,13.46
2018-05-13T09:35:02.067Z,13.42
2018-05-13T09:36:02.059Z,13.38
2018-05-13T09:37:02.052Z,13.38
2018-05-13T09:38:02.053Z,13.38
2018-05-13T09:39:02.039Z,13.42
2018-05-13T09:40:02.030Z,13.46
2018-05-13T09:41:02.026Z,13.54
2018-05-13T09:42:02.015Z,13.59
2018-05-13T09:43:02.015Z,13.54
2018-05-13T09:44:02.003Z,13.54
2018-05-13T09:45:01.994Z,13.57
2018-05-13T09:46:01.986Z,13.67
2018-05-13T09:47:01.980Z,13.54
2018-05-13T09:48:01.972Z,13.52
2018-05-13T09:49:01.968Z,13.57
2018-05-13T09:50:01.958Z,13.56
2018-05-13T09:51:01.950Z,13.62
2018-05-13T09:52:01.943Z,13.71
2018-05-13T09:53:01.936Z,13.63
2018-05-13T09:54:01.929Z,13.65
2018-05-13T09:55:01.925Z,13.60
2018-05-13T09:56:01.914Z,13.47
2018-05-13T09:57:01.907Z,13.50
2018-05-13T09:58:01.899Z,13.44
2018-05-13T09:59:01.893Z,13.54
2018-05-13T10:00:01.886Z,13.53
2018-05-13T10:01:01.877Z,13.47
2018-05-13T10:02:01.875Z,13.53
2018-05-13T10:03:01.863Z,13.49
2018-05-13T10:04:01.920Z,13.47
2018-05-13T10:05:01.848Z,13.49
2018-05-13T10:06:01.842Z,13.52
2018-05-13T10:07:01.834Z,13.50
2018-05-13T10:08:01.827Z,13.47
2018-05-13T10:09:01.820Z,13.49
2018-05-13T10:10:01.813Z,13.41
2018-05-13T10:11:01.805Z,13.56
2018-05-13T10:12:01.798Z,13.49
2018-05-13T10:13:01.790Z,13.54
2018-05-13T10:14:01.782Z,13.54
2018-05-13T10:15:01.776Z,13.56
2018-05-13T10:16:01.768Z,13.62
2018-05-13T10:17:01.762Z,13.62
2018-05-13T10:18:01.753Z,13.59
2018-05-13T10:19:01.746Z,13.53
2018-05-13T10:20:01.789Z,13.50
2018-05-13T10:21:01.731Z,13.39
2018-05-13T10:22:01.724Z,13.41
2018-05-13T10:23:01.718Z,13.35
2018-05-13T10:24:01.710Z,13.33
2018-05-13T10:25:01.702Z,13.37
2018-05-13T10:26:01.695Z,13.46
2018-05-13T10:27:01.687Z,13.44
2018-05-13T10:28:01.680Z,13.35
2018-05-13T10:29:01.672Z,13.37
2018-05-13T10:30:01.665Z,13.30
2018-05-13T10:31:01.658Z,13.31
2018-05-13T10:32:01.650Z,13.33
2018-05-13T10:33:01.642Z,13.37
2018-05-13T10:34:01.636Z,13.37
2018-05-13T10:35:01.633Z,13.25
2018-05-13T10:36:01.620Z,13.19
2018-05-13T10:37:01.612Z,13.16
2018-05-13T10:38:01.606Z,13.20
2018-05-13T10:39:01.598Z,13.12
2018-05-13T10:40:01.590Z,13.20
2018-05-13T10:41:01.594Z,13.15
2018-05-13T10:42:01.575Z,13.19
2018-05-13T10:43:01.567Z,13.20
2018-05-13T10:44:01.560Z,13.20
2018-05-13T10:45:01.602Z,13.31
2018-05-13T10:46:01.545Z,13.27
2018-05-13T10:47:01.538Z,13.25
2018-05-13T10:48:01.530Z,13.31
2018-05-13T10:49:01.522Z,13.23
2018-05-13T10:50:01.515Z,13.25
2018-05-13T10:51:01.507Z,13.25
2018-05-13T10:52:01.500Z,13.33
2018-05-13T10:53:01.492Z,13.37
2018-05-13T10:54:01.485Z,13.38
2018-05-13T10:55:01.477Z,13.46
2018-05-13T10:56:01.471Z,13.57
2018-05-13T10:57:01.463Z,13.62
2018-05-13T10:58:01.456Z,13.65
2018-05-13T10:59:01.468Z,13.67
2018-05-13T11:00:01.443Z,13.63
2018-05-13T11:01:01.439Z,13.65
2018-05-13T11:02:01.433Z,13.77
2018-05-13T11:03:01.420Z,13.75
2018-05-13T11:04:01.414Z,13.65
2018-05-13T11:05:01.407Z,13.65
2018-05-13T11:06:01.399Z,13.56
2018-05-13T11:07:01.397Z,13.52
2018-05-13T11:08:01.386Z,13.52
2018-05-13T11:09:01.380Z,13.49
2018-05-13T11:10:01.375Z,13.49
2018-05-13T11:11:01.367Z,13.46
2018-05-13T11:12:01.359Z,13.49
2018-05-13T11:13:01.351Z,13.42
2018-05-13T11:14:01.345Z,13.46
2018-05-13T11:15:01.338Z,13.38
2018-05-13T11:16:01.332Z,13.30
2018-05-13T11:17:01.324Z,13.31
2018-05-13T11:18:01.317Z,13.22
2018-05-13T11:19:01.319Z,13.23
2018-05-13T11:20:01.307Z,13.30
2018-05-13T11:21:01.295Z,13.28
2018-05-13T11:22:01.294Z,13.22
2018-05-13T11:23:01.282Z,13.28
2018-05-13T11:24:01.275Z,13.33
2018-05-13T11:25:01.267Z,13.39
2018-05-13T11:26:01.261Z,13.39
2018-05-13T11:27:01.254Z,13.37
2018-05-13T11:28:01.247Z,13.37
2018-05-13T11:29:01.239Z,13.23
2018-05-13T11:30:01.234Z,13.27
2018-05-13T11:31:01.227Z,13.13
2018-05-13T11:32:01.220Z,13.22
2018-05-13T11:33:01.212Z,13.15
2018-05-13T11:34:01.209Z,13.23
2018-05-13T11:35:01.198Z,13.27
2018-05-13T11:36:01.190Z,13.42
2018-05-13T11:37:01.183Z,13.42
2018-05-13T11:38:01.176Z,13.35
2018-05-13T11:39:01.169Z,13.39
2018-05-13T11:40:01.163Z,13.42
2018-05-13T11:41:01.155Z,13.50
2018-05-13T11:42:01.148Z,13.49
2018-05-13T11:43:01.141Z,13.37
2018-05-13T11:44:01.134Z,13.31
2018-05-13T11:45:01.126Z,13.31
2018-05-13T11:46:01.120Z,13.23
2018-05-13T11:47:01.112Z,13.23
2018-05-13T11:48:01.106Z,13.39
2018-05-13T11:49:01.098Z,13.35
2018-05-13T11:50:01.091Z,13.39
2018-05-13T11:51:01.084Z,13.38
2018-05-13T11:52:01.077Z,13.35
2018-05-13T11:53:01.072Z,13.27
2018-05-13T11:54:01.063Z,13.31
2018-05-13T11:55:01.056Z,13.41
2018-05-13T11:56:01.049Z,13.38
2018-05-13T11:57:01.040Z,13.30
2018-05-13T11:58:01.034Z,13.30
2018-05-13T11:59:01.027Z,13.33
2018-05-13T12:00:01.020Z,13.33
2018-05-13T12:01:01.012Z,13.39
2018-05-13T12:02:01.005Z,13.46
2018-05-13T12:03:01.001Z,13.53
2018-05-13T12:04:00.991Z,13.54
2018-05-13T12:05:00.983Z,13.49
2018-05-13T12:06:00.976Z,13.38
2018-05-13T12:07:00.970Z,13.27
2018-05-13T12:08:00.963Z,13.39
2018-05-13T12:09:00.955Z,13.42
2018-05-13T12:10:00.947Z,13.35
2018-05-13T12:11:00.941Z,13.30
2018-05-13T12:12:00.934Z,13.37
2018-05-13T12:13:00.926Z,13.46
2018-05-13T12:14:00.919Z,13.47
2018-05-13T12:15:00.953Z,13.46
2018-05-13T12:16:00.910Z,13.46
2018-05-13T12:17:00.898Z,13.62
2018-05-13T12:18:00.892Z,13.57
2018-05-13T12:19:00.885Z,13.49
2018-05-13T12:20:00.877Z,13.54
2018-05-13T12:21:00.950Z,13.63
2018-05-13T12:22:00.871Z,13.57
2018-05-13T12:23:00.856Z,13.62
2018-05-13T12:24:00.850Z,13.68
2018-05-13T12:25:00.842Z,13.63
2018-05-13T12:26:00.836Z,13.63
2018-05-13T12:27:00.829Z,13.62
2018-05-13T12:28:00.823Z,13.62
2018-05-13T12:29:00.836Z,13.68
2018-05-13T12:30:00.810Z,13.65
2018-05-13T12:31:00.802Z,13.78
2018-05-13T12:32:00.796Z,13.83
2018-05-13T12:33:00.789Z,13.86
2018-05-13T12:34:00.786Z,13.83
2018-05-13T12:35:00.776Z,13.75
2018-05-13T12:36:00.770Z,13.77
2018-05-13T12:37:00.763Z,13.79
2018-05-13T12:38:00.816Z,13.85
2018-05-13T12:39:00.751Z,13.74
2018-05-13T12:40:00.744Z,13.74
2018-05-13T12:41:00.737Z,13.90
2018-05-13T12:42:00.731Z,13.90
2018-05-13T12:43:00.725Z,14.04
2018-05-13T12:44:00.719Z,14.04
2018-05-13T12:45:00.711Z,14.07
2018-05-13T12:46:00.705Z,13.78
2018-05-13T12:47:00.700Z,13.77
2018-05-13T12:48:00.693Z,13.78
2018-05-13T12:49:00.685Z,13.65
2018-05-13T12:50:00.680Z,13.70
2018-05-13T12:51:00.673Z,13.75
2018-05-13T12:52:00.667Z,13.77